Time;durP1;ratioP1;P1;durP2;ratioP2;P2;SDS_P1;SDS_P2;PMS_P1;PMS_P2;Temp;Humidity;BMP_temperature;BMP_pressure;BME280_temperature;BME280_humidity;BME280_pressure;Samples;Min_cycle;Max_cycle;Signal;HPM_P1;HPM_P2
2022/09/27 00:00:34;;;;;;;5.97;4.57;;;;;;;9.02;100.00;98934.84;7394914;19;20980;-56
2022/09/27 00:03:04;;;;;;;5.50;4.17;;;;;;;8.98;100.00;98943.31;7391141;19;20435;-56
2022/09/27 00:05:36;;;;;;;5.17;4.60;;;;;;;8.93;100.00;98937.25;7397786;19;20415;-57
2022/09/27 00:08:06;;;;;;;5.63;4.57;;;;;;;8.99;100.00;98934.81;7390718;19;20396;-58
2022/09/27 00:10:35;;;;;;;6.30;5.00;;;;;;;8.99;100.00;98939.94;7396764;19;21069;-60
2022/09/27 00:13:05;;;;;;;6.83;4.90;;;;;;;9.00;100.00;98938.22;7382572;19;20937;-58
2022/09/27 00:15:35;;;;;;;5.63;4.70;;;;;;;8.99;100.00;98934.81;7396614;19;20762;-58
2022/09/27 00:18:04;;;;;;;6.43;4.73;;;;;;;9.04;100.00;98932.31;7389549;19;20419;-59
2022/09/27 00:20:37;;;;;;;7.37;4.70;;;;;;;8.98;100.00;98935.63;7394938;19;20403;-60
2022/09/27 00:23:06;;;;;;;8.07;4.47;;;;;;;8.95;100.00;98922.72;7389864;19;20411;-54
2022/09/27 00:25:36;;;;;;;11.63;5.20;;;;;;;8.93;100.00;98924.41;7396731;19;20445;-60
2022/09/27 00:28:05;;;;;;;5.87;4.60;;;;;;;8.95;100.00;98916.69;7390953;19;20751;-59
2022/09/27 00:30:35;;;;;;;5.83;4.57;;;;;;;8.94;100.00;98918.41;7395124;19;20396;-61
2022/09/27 00:33:04;;;;;;;5.50;4.37;;;;;;;8.91;100.00;98915.75;7392120;19;20412;-57
2022/09/27 00:35:37;;;;;;;8.23;5.33;;;;;;;9.05;100.00;98906.63;7395035;19;20411;-60
2022/09/27 00:38:06;;;;;;;6.97;4.97;;;;;;;8.98;100.00;98906.47;7391494;19;20411;-59
2022/09/27 00:40:36;;;;;;;6.57;4.50;;;;;;;8.97;100.00;98897.03;7393207;19;20435;-58
2022/09/27 00:43:11;;;;;;;7.53;4.80;;;;;;;8.98;100.00;98897.03;7385590;19;20417;-51
2022/09/27 00:45:40;;;;;;;9.77;5.70;;;;;;;8.98;100.00;98894.47;7394258;19;20414;-52
2022/09/27 00:48:12;;;;;;;7.00;4.90;;;;;;;8.99;100.00;98898.78;7390744;19;20419;-53
2022/09/27 00:50:45;;;;;;;7.77;5.07;;;;;;;8.97;100.00;98890.16;7394276;19;20434;-54
2022/09/27 00:53:18;;;;;;;6.30;5.03;;;;;;;9.12;100.00;98883.56;7391073;19;20945;-57
2022/09/27 00:55:51;;;;;;;6.03;4.70;;;;;;;9.18;100.00;98883.69;7394511;19;20783;-55
2022/09/27 00:58:23;;;;;;;6.57;5.00;;;;;;;9.07;100.00;98875.75;7390918;19;20453;-62
2022/09/27 01:00:57;;;;;;;6.10;4.90;;;;;;;8.99;100.00;98873.06;7399588;19;20395;-57
2022/09/27 01:03:33;;;;;;;9.33;5.30;;;;;;;9.09;100.00;98870.66;7398295;19;20431;-59
2022/09/27 01:06:07;;;;;;;5.60;4.83;;;;;;;9.03;100.00;98871.41;7401687;19;20415;-58
2022/09/27 01:08:37;;;;;;;9.00;5.07;;;;;;;9.06;100.00;98866.31;7395956;19;20431;-53
2022/09/27 01:11:16;;;;;;;7.87;5.10;;;;;;;8.99;100.00;98865.34;7401571;19;20957;-58
2022/09/27 01:13:52;;;;;;;7.00;5.13;;;;;;;8.98;100.00;98866.16;7390062;19;22235;-57
2022/09/27 01:16:27;;;;;;;8.37;5.03;;;;;;;8.97;100.00;98861.88;7401160;19;20399;-56
2022/09/27 01:19:05;;;;;;;6.30;4.87;;;;;;;8.97;100.00;98858.44;7395326;19;20465;-54
2022/09/27 01:21:46;;;;;;;7.63;5.10;;;;;;;8.99;100.00;98852.50;7401843;19;20395;-55
2022/09/27 01:24:40;;;;;;;6.50;5.00;;;;;;;9.10;100.00;98856.94;7397529;19;20435;-56
2022/09/27 01:27:34;;;;;;;9.47;5.57;;;;;;;8.98;100.00;98845.59;7396169;19;20383;-63
2022/09/27 01:30:20;;;;;;;7.80;5.13;;;;;;;8.97;100.00;98854.16;7396089;19;20795;-56
2022/09/27 01:32:55;;;;;;;6.30;4.93;;;;;;;9.00;100.00;98848.19;7396083;19;20406;-57
2022/09/27 01:35:32;;;;;;;7.60;4.83;;;;;;;8.95;100.00;98842.09;7400117;19;20407;-54
2022/09/27 01:38:13;;;;;;;8.97;5.30;;;;;;;8.99;100.00;98846.47;7395236;19;20407;-55
2022/09/27 01:40:49;;;;;;;8.13;5.83;;;;;;;8.94;100.00;98848.97;7396685;19;20379;-52
2022/09/27 01:43:21;;;;;;;6.33;5.13;;;;;;;8.92;100.00;98848.03;7384661;19;20421;-59
2022/09/27 01:45:55;;;;;;;6.33;4.73;;;;;;;8.92;100.00;98842.91;7398622;19;20388;-58
2022/09/27 01:48:25;;;;;;;5.20;4.63;;;;;;;8.93;100.00;98834.38;7395820;19;20463;-59
2022/09/27 01:50:59;;;;;;;7.40;4.70;;;;;;;8.91;100.00;98836.03;7398032;19;20420;-57
2022/09/27 01:53:33;;;;;;;6.03;5.00;;;;;;;8.90;100.00;98830.03;7395600;19;20784;-61
2022/09/27 01:56:05;;;;;;;5.87;4.40;;;;;;;8.90;100.00;98826.59;7398630;19;20784;-59
2022/09/27 01:58:38;;;;;;;7.27;5.80;;;;;;;9.13;100.00;98823.56;7393489;19;20827;-58
2022/09/27 02:01:11;;;;;;;7.40;5.73;;;;;;;9.35;100.00;98819.63;7396281;19;20387;-56
2022/09/27 02:03:43;;;;;;;6.10;5.20;;;;;;;9.14;100.00;98815.84;7397962;19;20476;-60
2022/09/27 02:06:17;;;;;;;10.20;5.33;;;;;;;9.02;100.00;98805.34;7397953;19;20388;-60
2022/09/27 02:08:50;;;;;;;7.90;5.20;;;;;;;9.04;100.00;98803.69;7392853;19;20411;-57
2022/09/27 02:11:19;;;;;;;5.97;4.53;;;;;;;9.00;100.00;98802.78;7397694;19;20392;-52
2022/09/27 02:13:52;;;;;;;8.30;5.70;;;;;;;8.98;100.00;98814.72;7389560;19;20461;-52
2022/09/27 02:16:31;;;;;;;7.47;4.90;;;;;;;9.11;100.00;98800.38;7397428;19;20833;-57
2022/09/27 02:19:07;;;;;;;7.40;5.60;;;;;;;8.99;100.00;98806.19;7393046;19;20430;-52
2022/09/27 02:21:43;;;;;;;5.80;5.07;;;;;;;8.99;100.00;98802.72;7395575;19;20926;-57
2022/09/27 02:24:16;;;;;;;6.60;4.97;;;;;;;8.98;100.00;98804.44;7394402;19;20403;-55
2022/09/27 02:26:47;;;;;;;8.77;5.50;;;;;;;8.96;100.00;98800.13;7396790;19;20439;-59
2022/09/27 02:29:18;;;;;;;7.53;5.80;;;;;;;9.05;100.00;98805.41;7392586;19;20426;-58
2022/09/27 02:31:51;;;;;;;8.17;5.73;;;;;;;8.99;100.00;98806.19;7397106;19;20408;-57
2022/09/27 02:34:24;;;;;;;7.00;5.50;;;;;;;8.96;100.00;98806.13;7393866;19;20434;-57
2022/09/27 02:36:55;;;;;;;6.70;5.97;;;;;;;8.96;100.00;98807.84;7396831;19;20391;-57
2022/09/27 02:39:25;;;;;;;6.47;5.70;;;;;;;8.96;100.00;98800.97;7392033;19;20446;-57
2022/09/27 02:41:57;;;;;;;8.67;5.60;;;;;;;8.94;100.00;98802.66;7394865;19;20654;-58
2022/09/27 02:44:27;;;;;;;8.20;6.17;;;;;;;8.93;100.00;98800.94;7391876;19;20773;-58
2022/09/27 02:47:11;;;;;;;17.03;5.87;;;;;;;8.95;100.00;98799.25;7396471;19;20914;-54
2022/09/27 02:49:50;;;;;;;7.80;5.77;;;;;;;8.91;100.00;98787.16;7391570;19;20417;-58
2022/09/27 02:52:28;;;;;;;7.30;5.83;;;;;;;8.94;100.00;98781.22;7393149;19;20419;-58
2022/09/27 02:55:07;;;;;;;7.23;5.67;;;;;;;9.10;100.00;98778.06;7396006;19;20384;-57
2022/09/27 02:57:43;;;;;;;8.67;6.60;;;;;;;9.04;100.00;98775.38;7391569;19;20440;-53
2022/09/27 03:00:16;;;;;;;9.50;6.30;;;;;;;8.99;100.00;98774.44;7394010;19;20930;-53
2022/09/27 03:02:53;;;;;;;8.53;6.67;;;;;;;8.96;100.00;98774.41;7392997;19;20980;-56
2022/09/27 03:05:26;;;;;;;8.83;6.53;;;;;;;8.94;100.00;98763.22;7395845;19;20913;-58
2022/09/27 03:07:55;;;;;;;9.40;7.47;;;;;;;9.01;100.00;98768.47;7392758;19;20447;-58
2022/09/27 03:10:27;;;;;;;9.17;6.00;;;;;;;9.00;100.00;98755.59;7395849;19;20384;-58
2022/09/27 03:12:57;;;;;;;12.00;7.60;;;;;;;9.03;100.00;98756.50;7392561;19;20816;-58
2022/09/27 03:15:27;;;;;;;8.33;6.63;;;;;;;8.99;100.00;98753.88;7395517;19;20379;-55
2022/09/27 03:17:59;;;;;;;11.03;7.10;;;;;;;9.00;100.00;98753.91;7392051;19;20415;-53
2022/09/27 03:20:29;;;;;;;9.27;7.17;;;;;;;9.08;100.00;98751.41;7394819;19;20380;-56
2022/09/27 03:22:58;;;;;;;8.40;6.70;;;;;;;9.01;100.00;98747.91;7391562;19;20871;-57
2022/09/27 03:25:28;;;;;;;9.30;6.87;;;;;;;8.95;100.00;98747.81;7396361;19;20748;-54
2022/09/27 03:27:57;;;;;;;14.73;7.77;;;;;;;8.94;100.00;98743.50;7392165;19;21044;-58
2022/09/27 03:30:27;;;;;;;11.33;7.00;;;;;;;8.91;100.00;98746.00;7394989;19;20396;-57
2022/09/27 03:32:59;;;;;;;9.73;7.87;;;;;;;8.98;100.00;98740.13;7391917;19;20436;-55
2022/09/27 03:35:29;;;;;;;13.50;9.73;;;;;;;8.96;100.00;98741.81;7394729;19;20384;-55
2022/09/27 03:37:58;;;;;;;10.27;7.20;;;;;;;8.95;100.00;98732.38;7391084;19;20775;-59
2022/09/27 03:40:28;;;;;;;8.80;6.93;;;;;;;8.95;100.00;98731.50;7395144;19;20406;-58
2022/09/27 03:42:57;;;;;;;9.40;7.47;;;;;;;8.96;100.00;98733.25;7390268;19;20422;-52
2022/09/27 03:45:27;;;;;;;10.00;7.00;;;;;;;8.96;100.00;98723.81;7394596;19;20384;-56
2022/09/27 03:47:59;;;;;;;9.73;7.37;;;;;;;8.98;100.00;98726.41;7391324;19;20427;-57
2022/09/27 03:50:29;;;;;;;10.70;7.50;;;;;;;9.00;100.00;98714.44;7394147;19;20391;-52
2022/09/27 03:52:58;;;;;;;8.30;6.80;;;;;;;8.96;100.00;98710.09;7391366;19;20402;-53
2022/09/27 03:55:28;;;;;;;8.20;6.40;;;;;;;8.94;100.00;98710.06;7394120;19;20929;-52
2022/09/27 03:57:57;;;;;;;9.83;6.70;;;;;;;8.94;100.00;98707.50;7391261;19;20415;-54
2022/09/27 04:00:27;;;;;;;8.33;6.37;;;;;;;8.92;100.00;98706.59;7393824;19;20383;-56
2022/09/27 04:02:59;;;;;;;9.27;7.57;;;;;;;8.91;100.00;98699.72;7389376;19;20433;-61
2022/09/27 04:05:31;;;;;;;10.93;8.10;;;;;;;8.95;100.00;98701.50;7393882;19;20380;-54
2022/09/27 04:08:01;;;;;;;8.03;6.40;;;;;;;8.94;100.00;98694.63;7390297;19;20415;-55
2022/09/27 04:10:30;;;;;;;8.10;6.43;;;;;;;8.94;100.00;98699.78;7394947;19;20949;-55
2022/09/27 04:13:00;;;;;;;9.07;6.87;;;;;;;8.93;100.00;98698.06;7391080;19;20458;-61
2022/09/27 04:15:29;;;;;;;9.30;6.83;;;;;;;8.93;100.00;98687.78;7393480;19;20426;-54
2022/09/27 04:18:05;;;;;;;7.73;6.37;;;;;;;8.93;100.00;98682.63;7389871;19;20762;-57
2022/09/27 04:20:35;;;;;;;10.13;7.60;;;;;;;8.95;100.00;98678.34;7393471;19;20418;-57
2022/09/27 04:23:04;;;;;;;8.37;6.67;;;;;;;8.94;100.00;98678.31;7388888;19;20418;-53
2022/09/27 04:25:34;;;;;;;9.50;7.07;;;;;;;8.91;100.00;98669.75;7393170;19;20388;-56
2022/09/27 04:28:05;;;;;;;7.70;6.30;;;;;;;8.93;100.00;98671.47;7389739;19;20968;-56
2022/09/27 04:30:34;;;;;;;12.13;7.00;;;;;;;8.94;100.00;98668.91;7393296;19;20384;-53
2022/09/27 04:33:07;;;;;;;8.07;6.33;;;;;;;8.90;100.00;98677.41;7391077;19;20430;-55
2022/09/27 04:38:19;;;;;;;6.67;5.57;;;;;;;8.91;100.00;98674.00;7396412;19;20429;-58
2022/09/27 04:40:49;;;;;;;9.10;5.50;;;;;;;8.89;100.00;98676.56;7400445;19;20388;-54
2022/09/27 04:43:19;;;;;;;8.73;5.83;;;;;;;8.93;100.00;98666.31;7394999;19;21021;-57
2022/09/27 04:45:48;;;;;;;7.93;6.30;;;;;;;8.90;100.00;98662.00;7400481;19;20395;-54
2022/09/27 04:48:20;;;;;;;7.40;5.60;;;;;;;8.91;100.00;98663.72;7396087;19;20961;-58
2022/09/27 04:50:57;;;;;;;7.03;5.60;;;;;;;8.95;100.00;98655.22;7400313;19;20383;-53
2022/09/27 04:53:28;;;;;;;13.30;7.20;;;;;;;8.95;100.00;98657.78;7397221;19;20414;-57
2022/09/27 04:56:01;;;;;;;7.20;6.00;;;;;;;8.95;100.00;98649.19;7400574;19;20415;-57
2022/09/27 04:58:32;;;;;;;7.43;5.90;;;;;;;8.94;100.00;98658.63;7395996;19;20797;-55
2022/09/27 05:01:03;;;;;;;6.73;5.60;;;;;;;8.94;100.00;98648.34;7400144;19;20411;-60
2022/09/27 05:03:35;;;;;;;6.40;5.10;;;;;;;8.92;100.00;98650.00;7395819;19;20436;-58
2022/09/27 05:06:05;;;;;;;7.57;5.30;;;;;;;8.93;100.00;98656.91;7399889;19;20388;-61
2022/09/27 05:08:34;;;;;;;8.40;5.63;;;;;;;8.90;100.00;98647.44;7395221;19;20426;-53
2022/09/27 05:11:04;;;;;;;7.60;5.50;;;;;;;8.93;100.00;98650.88;7399529;19;20383;-53
2022/09/27 05:13:34;;;;;;;6.40;5.43;;;;;;;8.93;100.00;98646.63;7396352;19;20415;-58
2022/09/27 05:16:05;;;;;;;8.00;5.90;;;;;;;8.92;100.00;98650.00;7399442;19;20886;-53
2022/09/27 05:18:37;;;;;;;8.10;5.63;;;;;;;8.92;100.00;98644.88;7395151;19;20937;-57
2022/09/27 05:21:07;;;;;;;8.27;6.17;;;;;;;8.94;100.00;98639.75;7399192;19;20384;-56
2022/09/27 05:23:36;;;;;;;8.63;6.23;;;;;;;8.94;100.00;98640.63;7395808;19;20977;-60
2022/09/27 05:26:07;;;;;;;8.03;6.13;;;;;;;8.95;100.00;98634.63;7403471;19;20768;-60
2022/09/27 05:28:37;;;;;;;8.17;6.37;;;;;;;8.97;100.00;98638.09;7394732;19;20419;-57
2022/09/27 05:31:07;;;;;;;9.50;6.83;;;;;;;8.95;100.00;98629.50;7398816;19;20403;-55
2022/09/27 05:33:39;;;;;;;8.97;6.67;;;;;;;8.99;100.00;98628.69;7399235;19;20443;-57
2022/09/27 05:36:10;;;;;;;9.13;6.70;;;;;;;8.96;100.00;98628.66;7399004;19;20384;-57
2022/09/27 05:38:42;;;;;;;9.20;6.83;;;;;;;8.96;100.00;98633.78;7394241;19;20834;-56
2022/09/27 05:41:12;;;;;;;9.63;6.87;;;;;;;8.98;100.00;98634.66;7398401;19;20410;-55
2022/09/27 05:43:41;;;;;;;10.37;7.43;;;;;;;8.99;100.00;98635.53;7393688;19;20423;-55
2022/09/27 05:46:11;;;;;;;11.10;7.60;;;;;;;8.96;100.00;98633.78;7398475;19;20380;-56
2022/09/27 05:48:43;;;;;;;11.50;8.13;;;;;;;8.98;100.00;98626.09;7393623;19;20544;-58
2022/09/27 05:51:13;;;;;;;11.47;7.70;;;;;;;8.97;100.00;98632.09;7397733;19;20406;-60
2022/09/27 05:53:42;;;;;;;16.83;11.13;;;;;;;8.98;100.00;98634.66;7394922;19;20415;-52
2022/09/27 05:56:12;;;;;;;13.90;10.00;;;;;;;9.01;100.00;98634.72;7398198;19;20387;-58
2022/09/27 05:58:41;;;;;;;11.70;7.90;;;;;;;9.03;100.00;98627.88;7394623;19;20419;-60
2022/09/27 06:01:11;;;;;;;12.73;9.03;;;;;;;9.05;100.00;98631.38;7397811;19;20407;-56
2022/09/27 06:03:44;;;;;;;13.37;9.03;;;;;;;9.05;100.00;98625.34;7394665;19;20814;-52
2022/09/27 06:06:14;;;;;;;13.60;9.00;;;;;;;9.04;100.00;98629.59;7400548;19;20395;-56
2022/09/27 06:08:44;;;;;;;13.33;8.50;;;;;;;9.04;100.00;98628.75;7393935;19;20438;-53
2022/09/27 06:11:14;;;;;;;14.30;8.57;;;;;;;9.03;100.00;98627.03;7397334;19;20419;-60
2022/09/27 06:13:44;;;;;;;13.80;9.50;;;;;;;8.99;100.00;98621.00;7394654;19;20446;-57
2022/09/27 06:16:13;;;;;;;17.40;9.00;;;;;;;9.02;100.00;98620.13;7397359;19;20384;-53
2022/09/27 06:18:46;;;;;;;16.20;9.80;;;;;;;9.02;100.00;98610.72;7393140;19;20431;-55
2022/09/27 06:21:16;;;;;;;14.87;9.40;;;;;;;9.07;100.00;98608.22;7397086;19;20379;-55
2022/09/27 06:23:46;;;;;;;17.50;10.47;;;;;;;9.04;100.00;98609.03;7394211;19;20415;-51
2022/09/27 06:26:21;;;;;;;19.20;10.40;;;;;;;9.09;100.00;98605.66;7397129;19;20391;-55
2022/09/27 06:28:51;;;;;;;15.60;9.93;;;;;;;9.05;100.00;98605.63;7392584;19;20437;-55
2022/09/27 06:31:21;;;;;;;16.40;9.20;;;;;;;9.10;100.00;98602.25;7396495;19;20380;-54
2022/09/27 06:33:53;;;;;;;15.80;8.90;;;;;;;9.12;100.00;98606.56;7393896;19;20415;-55
2022/09/27 06:36:22;;;;;;;16.67;9.10;;;;;;;9.07;100.00;98600.50;7396901;19;20375;-57
2022/09/27 06:38:52;;;;;;;10.10;5.80;;;;;;;8.99;100.00;98596.97;7391966;19;20945;-54
2022/09/27 06:41:22;;;;;;;12.27;7.13;;;;;;;9.01;100.00;98596.13;7396425;19;20388;-55
2022/09/27 06:43:51;;;;;;;11.70;6.60;;;;;;;8.99;100.00;98595.25;7393265;19;20436;-51
2022/09/27 06:46:21;;;;;;;12.17;7.20;;;;;;;9.01;100.00;98596.13;7396297;19;20396;-59
2022/09/27 06:48:53;;;;;;;10.50;6.27;;;;;;;9.01;100.00;98595.25;7391954;19;20419;-55
2022/09/27 06:51:23;;;;;;;12.70;6.80;;;;;;;9.05;100.00;98590.19;7395781;19;21205;-61
2022/09/27 06:53:52;;;;;;;14.23;6.73;;;;;;;9.04;100.00;98585.88;7393684;19;20427;-55
2022/09/27 06:56:22;;;;;;;13.77;6.93;;;;;;;9.05;100.00;98595.34;7394233;19;20422;-48
2022/09/27 07:01:34;;;;;;;12.17;6.57;;;;;;;9.12;100.00;98585.13;7395684;19;20451;-56
2022/09/27 07:04:06;;;;;;;14.40;7.07;;;;;;;9.06;100.00;98585.91;7391641;19;20529;-50
2022/09/27 07:06:36;;;;;;;13.03;5.70;;;;;;;9.09;100.00;98585.09;7396290;19;20392;-50
2022/09/27 07:09:06;;;;;;;13.00;5.30;;;;;;;9.07;100.00;98586.78;7391480;19;20450;-52
2022/09/27 07:11:37;;;;;;;14.27;4.70;;;;;;;9.11;100.00;98589.41;7395394;19;20426;-56
2022/09/27 07:14:07;;;;;;;11.87;4.30;;;;;;;9.13;100.00;98581.72;7393086;19;20423;-54
2022/09/27 07:16:36;;;;;;;6.60;3.83;;;;;;;9.08;100.00;98583.34;7395626;19;20406;-51
2022/09/27 07:19:10;;;;;;;5.60;3.37;;;;;;;9.05;100.00;98579.91;7391115;19;20473;-57
2022/09/27 07:21:40;;;;;;;7.70;3.60;;;;;;;9.04;100.00;98583.31;7399679;19;20811;-57
2022/09/27 07:24:09;;;;;;;7.83;3.57;;;;;;;9.05;100.00;98582.47;7390803;19;20976;-58
2022/09/27 07:26:39;;;;;;;8.20;3.23;;;;;;;9.04;100.00;98588.44;7393725;19;21124;-54
2022/09/27 07:29:08;;;;;;;5.40;3.33;;;;;;;9.00;100.00;98599.56;7394338;19;20790;-56
2022/09/27 07:31:38;;;;;;;5.77;3.03;;;;;;;9.09;100.00;98600.53;7394384;19;20422;-57
2022/09/27 07:34:11;;;;;;;8.63;2.80;;;;;;;9.08;100.00;98609.94;7393247;19;20443;-56
2022/09/27 07:36:40;;;;;;;19.50;9.20;;;;;;;9.11;100.00;98611.69;7394530;19;20384;-57
2022/09/27 07:39:11;;;;;;;4.47;2.93;;;;;;;9.10;100.00;98620.25;7390579;19;20442;-53
2022/09/27 07:41:41;;;;;;;6.43;3.20;;;;;;;9.15;100.00;98627.19;7394530;19;20380;-55
2022/09/27 07:44:11;;;;;;;6.97;2.20;;;;;;;9.10;100.00;98622.81;7388782;19;20462;-59
2022/09/27 07:46:41;;;;;;;5.13;2.57;;;;;;;9.09;100.00;98626.25;7394378;19;20402;-61
2022/09/27 07:49:13;;;;;;;5.30;2.10;;;;;;;9.10;100.00;98633.13;7389846;19;20542;-61
2022/09/27 07:51:43;;;;;;;6.33;2.70;;;;;;;9.14;100.00;98640.88;7393675;19;20388;-57
2022/09/27 07:54:13;;;;;;;4.00;1.90;;;;;;;9.16;100.00;98651.22;7391148;19;20445;-59
2022/09/27 07:56:46;;;;;;;10.27;3.23;;;;;;;9.11;100.00;98650.28;7392586;19;20390;-54
2022/09/27 07:59:16;;;;;;;8.60;2.70;;;;;;;9.15;100.00;98646.91;7392309;19;20761;-54
2022/09/27 08:01:45;;;;;;;3.33;1.67;;;;;;;9.19;100.00;98664.97;7395977;19;20395;-48
2022/09/27 08:04:17;;;;;;;4.83;1.97;;;;;;;9.20;100.00;98660.72;7388583;19;20465;-58
2022/09/27 08:06:47;;;;;;;5.30;2.73;;;;;;;9.19;100.00;98671.84;7393319;19;20380;-59
2022/09/27 08:09:16;;;;;;;6.60;1.87;;;;;;;9.15;100.00;98677.78;7392059;19;20468;-60
2022/09/27 08:11:47;;;;;;;6.60;3.03;;;;;;;9.27;100.00;98683.09;7393667;19;20404;-56
2022/09/27 08:14:17;;;;;;;4.27;2.07;;;;;;;9.26;100.00;98685.66;7388497;19;20422;-59
2022/09/27 08:16:47;;;;;;;3.17;1.63;;;;;;;9.31;100.00;98684.88;7393605;19;21009;-56
2022/09/27 08:19:19;;;;;;;4.03;1.97;;;;;;;9.31;100.00;98699.44;7388398;19;20421;-54
2022/09/27 08:21:49;;;;;;;6.90;2.13;;;;;;;9.27;100.00;98693.41;7392982;19;20380;-56
2022/09/27 08:24:18;;;;;;;4.80;2.30;;;;;;;9.30;100.00;98695.16;7389680;19;20465;-56
2022/09/27 08:26:48;;;;;;;3.73;1.70;;;;;;;9.37;100.00;98704.69;7393182;19;20395;-61
2022/09/27 08:29:17;;;;;;;5.90;2.70;;;;;;;9.37;100.00;98714.09;7389164;19;20418;-56
2022/09/27 08:31:47;;;;;;;29.63;18.13;;;;;;;9.46;100.00;98719.38;7392667;19;20961;-57
2022/09/27 08:34:19;;;;;;;9.63;2.57;;;;;;;9.56;100.00;98728.09;7392522;19;20462;-55
2022/09/27 08:36:49;;;;;;;14.87;7.57;;;;;;;9.55;100.00;98734.94;7392290;19;20402;-60
2022/09/27 08:39:19;;;;;;;5.37;2.20;;;;;;;9.38;100.00;98736.44;7387784;19;20418;-58
2022/09/27 08:41:52;;;;;;;3.47;2.07;;;;;;;9.29;100.00;98766.31;7392594;19;20520;-56
2022/09/27 08:44:27;;;;;;;5.00;1.63;;;;;;;9.20;100.00;98773.91;7387249;19;20427;-53
2022/09/27 08:47:02;;;;;;;4.27;1.27;;;;;;;9.22;100.00;98787.66;7392022;19;20422;-58
2022/09/27 08:49:38;;;;;;;2.63;1.17;;;;;;;9.19;100.00;98803.06;7385952;19;20462;-59
2022/09/27 08:52:15;;;;;;;7.37;1.30;;;;;;;9.20;100.00;98820.25;7394378;19;20395;-56
2022/09/27 08:54:45;;;;;;;3.93;1.30;;;;;;;9.07;100.00;98813.16;7395243;19;20438;-56
2022/09/27 08:57:15;;;;;;;3.30;1.10;;;;;;;8.96;100.00;98823.28;7391991;19;20411;-55
2022/09/27 08:59:49;;;;;;;7.60;1.00;;;;;;;8.95;100.00;98830.13;7391948;19;20457;-55
2022/09/27 09:02:20;;;;;;;2.70;0.90;;;;;;;9.03;100.00;98851.69;7390069;19;20407;-57
2022/09/27 09:04:57;;;;;;;3.30;1.20;;;;;;;9.01;100.00;98862.78;7392587;19;20411;-57
2022/09/27 09:07:43;;;;;;;5.00;2.43;;;;;;;9.07;100.00;98867.19;7391167;19;20403;-53
2022/09/27 09:13:11;;;;;;;25.47;9.60;;;;;;;9.12;100.00;98874.13;7390251;19;20443;-55
2022/09/27 09:15:55;;;;;;;11.93;5.17;;;;;;;9.15;100.00;98888.75;7391739;19;20438;-56
2022/09/27 09:18:34;;;;;;;6.53;3.10;;;;;;;9.17;100.00;98885.38;7387847;19;20474;-57
2022/09/27 09:21:13;;;;;;;6.53;3.13;;;;;;;9.18;100.00;98899.13;7400443;19;20434;-57
2022/09/27 09:24:06;;;;;;;14.03;6.47;;;;;;;9.17;100.00;98887.06;7396312;19;20446;-55
2022/09/27 09:26:41;;;;;;;34.13;19.50;;;;;;;9.76;100.00;98893.19;7401640;19;20422;-54
2022/09/27 09:29:27;;;;;;;25.83;12.20;;;;;;;9.49;100.00;98886.75;7396172;19;20481;-58
2022/09/27 09:32:00;;;;;;;3.07;1.90;;;;;;;9.30;100.00;98881.31;7399667;19;20965;-60
2022/09/27 09:34:33;;;;;;;42.67;19.30;;;;;;;9.26;100.00;98878.66;7397972;19;20451;-53
2022/09/27 09:37:12;;;;;;;3.60;2.70;;;;;;;9.03;100.00;98885.13;7399381;19;20434;-54
2022/09/27 09:39:45;;;;;;;24.83;12.60;;;;;;;8.98;100.00;98881.59;7396904;19;20442;-50
2022/09/27 09:42:18;;;;;;;11.20;6.10;;;;;;;9.02;100.00;98892.81;7398047;19;20399;-56
2022/09/27 09:44:53;;;;;;;3.67;2.60;;;;;;;8.97;100.00;98895.31;7398033;19;20918;-57
2022/09/27 09:47:28;;;;;;;17.80;8.60;;;;;;;9.02;100.00;98892.81;7401205;19;20395;-56
2022/09/27 09:50:00;;;;;;;8.70;4.53;;;;;;;8.98;100.00;98909.88;7397196;19;20450;-56
2022/09/27 09:52:40;;;;;;;8.30;3.93;;;;;;;9.05;100.00;98909.19;7400554;19;20440;-55
2022/09/27 09:55:19;;;;;;;14.43;5.93;;;;;;;9.10;100.00;98906.69;7392511;19;20438;-58
2022/09/27 09:57:58;;;;;;;37.77;20.80;;;;;;;9.10;100.00;98910.97;7398564;19;20458;-56
2022/09/27 10:00:28;;;;;;;10.13;4.80;;;;;;;8.98;100.00;98911.63;7393866;19;20460;-60
2022/09/27 10:03:00;;;;;;;5.67;3.90;;;;;;;8.96;100.00;98909.00;7398157;19;20543;-58
2022/09/27 10:05:30;;;;;;;22.20;11.50;;;;;;;9.05;100.00;98914.34;7391919;19;21151;-59
2022/09/27 10:08:05;;;;;;;17.50;9.77;;;;;;;9.01;100.00;98912.53;7398310;19;20400;-59
2022/09/27 10:10:35;;;;;;;19.90;10.53;;;;;;;8.94;100.00;98915.84;7398249;19;20461;-57
2022/09/27 10:13:05;;;;;;;6.70;3.90;;;;;;;8.96;100.00;98914.16;7399626;19;20399;-57
2022/09/27 10:15:35;;;;;;;5.93;4.10;;;;;;;8.91;100.00;98913.19;7396569;19;20447;-56
2022/09/27 10:18:06;;;;;;;9.73;5.73;;;;;;;8.88;100.00;98918.28;7399417;19;20455;-56
2022/09/27 10:20:40;;;;;;;7.50;4.37;;;;;;;8.91;100.00;98926.06;7395769;19;20466;-55
2022/09/27 10:23:16;;;;;;;19.50;10.40;;;;;;;8.95;100.00;98917.56;7400080;19;20423;-59
2022/09/27 10:25:51;;;;;;;7.17;4.20;;;;;;;8.85;100.00;98920.78;7394357;19;20450;-54
2022/09/27 10:28:36;;;;;;;4.80;3.57;;;;;;;8.85;100.00;98918.22;7397548;19;20435;-56
2022/09/27 10:31:07;;;;;;;9.93;5.47;;;;;;;8.88;100.00;98923.44;7394664;19;20523;-56
2022/09/27 10:33:39;;;;;;;10.40;4.83;;;;;;;8.83;100.00;98927.63;7399270;19;20411;-57
2022/09/27 10:36:25;;;;;;;9.40;5.63;;;;;;;8.83;100.00;98922.47;7396726;19;20443;-59
2022/09/27 10:38:59;;;;;;;9.20;5.50;;;;;;;8.84;100.00;98929.34;7398664;19;20435;-61
2022/09/27 10:41:35;;;;;;;30.10;14.03;;;;;;;8.78;100.00;98930.94;7394909;19;20442;-56
2022/09/27 10:44:23;;;;;;;5.40;3.53;;;;;;;8.80;100.00;98924.97;7396858;19;20407;-62
2022/09/27 10:46:54;;;;;;;8.20;4.93;;;;;;;8.83;100.00;98936.22;7399994;19;20423;-53
2022/09/27 10:49:27;;;;;;;8.20;5.17;;;;;;;8.87;100.00;98929.41;7390317;19;20431;-57
2022/09/27 10:51:58;;;;;;;7.00;5.00;;;;;;;8.82;100.00;98931.03;7399629;19;20420;-59
2022/09/27 10:54:32;;;;;;;16.60;9.20;;;;;;;8.85;100.00;98933.66;7394831;19;20403;-57
2022/09/27 10:57:03;;;;;;;8.73;6.10;;;;;;;8.94;100.00;98935.53;7398958;19;20408;-56
2022/09/27 10:59:36;;;;;;;6.93;3.80;;;;;;;8.89;100.00;98927.72;7392202;19;20442;-56
2022/09/27 11:02:09;;;;;;;7.20;4.23;;;;;;;8.96;100.00;98929.59;7396979;19;20395;-55
2022/09/27 11:04:40;;;;;;;6.07;3.07;;;;;;;9.03;100.00;98926.28;7396092;19;20427;-56
2022/09/27 11:07:20;;;;;;;6.27;3.40;;;;;;;9.19;100.00;98924.00;7398867;19;20411;-62
2022/09/27 11:09:54;;;;;;;12.03;6.83;;;;;;;9.16;100.00;98917.09;7392344;19;20414;-52
2022/09/27 11:12:24;;;;;;;5.50;2.97;;;;;;;9.30;100.00;98909.63;7398128;19;20438;-58
2022/09/27 11:14:58;;;;;;;5.90;3.63;;;;;;;9.48;100.00;98918.47;7396385;19;20427;-53
2022/09/27 11:31:30;;;;;;;109.07;32.43;;;;;;;9.42;100.00;98823.13;7236976;19;3642342;-50
2022/09/27 11:34:10;;;;;;;48.33;18.03;;;;;;;9.38;100.00;98839.41;7430457;19;20189;-56
2022/09/27 11:36:50;;;;;;;6.20;2.27;;;;;;;9.37;100.00;98853.09;7418139;19;20434;-55
2022/09/27 11:39:25;;;;;;;17.13;5.97;;;;;;;9.26;100.00;98861.50;7427696;19;20757;-55
2022/09/27 11:42:16;;;;;;;2.77;1.90;;;;;;;9.30;100.00;98881.31;7424915;19;20481;-50
2022/09/27 11:45:03;;;;;;;8.83;2.83;;;;;;;9.37;100.00;98886.53;7431614;19;20399;-54
2022/09/27 11:48:04;;;;;;;9.43;2.77;;;;;;;9.42;100.00;98895.22;7421191;19;20549;-53
2022/09/27 11:51:02;;;;;;;40.23;12.33;;;;;;;9.42;100.00;98901.25;7425201;19;21035;-52
2022/09/27 11:53:40;;;;;;;5.03;2.47;;;;;;;9.53;100.00;98906.56;7427467;19;20983;-54
2022/09/27 11:56:17;;;;;;;7.73;3.20;;;;;;;9.68;100.00;98915.38;7428062;19;20435;-55
2022/09/27 11:58:55;;;;;;;8.73;3.20;;;;;;;9.78;100.00;98911.22;7432065;19;20418;-58
2022/09/27 12:01:31;;;;;;;4.73;3.37;;;;;;;9.91;100.00;98923.47;7423783;19;20543;-58
2022/09/27 12:04:14;;;;;;;2.93;1.40;;;;;;;10.05;100.00;98933.97;7428704;19;20398;-60
2022/09/27 12:06:49;;;;;;;3.10;1.70;;;;;;;10.00;100.00;98938.16;7425711;19;20720;-56
2022/09/27 12:09:21;;;;;;;3.37;1.30;;;;;;;9.83;100.00;98936.22;7427380;19;20394;-52
2022/09/27 12:11:52;;;;;;;4.73;2.57;;;;;;;10.01;100.00;98945.09;7425178;19;20456;-56
2022/09/27 12:14:26;;;;;;;5.97;1.70;;;;;;;9.92;100.00;98944.94;7426659;19;20407;-57
2022/09/27 12:16:57;;;;;;;3.37;2.80;;;;;;;9.99;100.00;98941.59;7423757;19;20442;-56